createdAt,value
2019-02-04T00:01:17.634Z,83.58
2019-02-04T00:03:45.002Z,83.34
2019-02-04T00:06:12.568Z,83.85
2019-02-04T00:08:39.625Z,83.86
2019-02-04T00:11:06.712Z,83.11
2019-02-04T00:13:33.762Z,82.83
2019-02-04T00:16:00.813Z,82.92
2019-02-04T00:18:28.105Z,83.13
2019-02-04T00:20:55.470Z,82.08
2019-02-04T00:23:22.528Z,82.36
2019-02-04T00:25:49.634Z,83.70
2019-02-04T00:28:16.682Z,83.88
2019-02-04T00:30:43.734Z,82.82
2019-02-04T00:33:10.820Z,82.81
2019-02-04T00:35:37.875Z,83.12
2019-02-04T00:38:04.931Z,83.43
2019-02-04T00:40:32.334Z,83.35
2019-02-04T00:42:59.421Z,83.51
2019-02-04T00:45:26.479Z,83.63
2019-02-04T00:47:53.563Z,82.67
2019-02-04T00:50:21.444Z,82.61
2019-02-04T00:52:48.530Z,83.41
2019-02-04T00:55:15.610Z,83.96
2019-02-04T00:57:43.171Z,82.78
2019-02-04T01:00:14.487Z,83.22
2019-02-04T01:02:41.664Z,83.46
2019-02-04T01:05:08.816Z,83.69
2019-02-04T01:07:36.295Z,84.71
2019-02-04T01:10:04.333Z,83.68
2019-02-04T01:12:31.700Z,85.11
2019-02-04T01:14:58.744Z,85.54
2019-02-04T01:17:25.809Z,84.68
2019-02-04T01:19:52.846Z,84.38
2019-02-04T01:22:19.886Z,84.30
2019-02-04T01:24:48.143Z,84.07
2019-02-04T01:27:15.421Z,83.49
2019-02-04T01:29:42.901Z,84.05
2019-02-04T01:32:09.973Z,83.91
2019-02-04T01:34:37.388Z,84.67
2019-02-04T01:37:05.834Z,84.20
2019-02-04T01:39:33.182Z,83.75
2019-02-04T01:42:00.843Z,83.96
2019-02-04T01:44:28.202Z,84.76
2019-02-04T01:46:55.863Z,85.09
2019-02-04T01:49:25.063Z,85.73
2019-02-04T01:51:52.415Z,85.00
2019-02-04T01:54:19.870Z,84.23
2019-02-04T01:56:47.226Z,85.14
2019-02-04T01:59:16.114Z,85.48
2019-02-04T02:01:43.665Z,85.08
2019-02-04T02:04:11.032Z,84.95
2019-02-04T02:06:38.422Z,84.95
2019-02-04T02:09:10.142Z,84.81
2019-02-04T02:11:38.215Z,84.57
2019-02-04T02:14:05.877Z,84.59
2019-02-04T02:16:33.330Z,84.61
2019-02-04T02:19:00.994Z,84.19
2019-02-04T02:21:28.684Z,84.48
2019-02-04T02:23:56.978Z,84.58
2019-02-04T02:26:24.310Z,84.82
2019-02-04T02:28:51.366Z,84.71
2019-02-04T02:31:19.307Z,85.08
2019-02-04T02:33:47.475Z,85.50
2019-02-04T02:36:14.832Z,85.70
2019-02-04T02:38:42.190Z,84.93
2019-02-04T02:41:09.695Z,84.92
2019-02-04T02:43:36.763Z,84.75
2019-02-04T02:46:04.613Z,85.65
2019-02-04T02:48:32.013Z,85.45
2019-02-04T02:50:59.722Z,85.01
2019-02-04T02:53:27.746Z,84.83
2019-02-04T02:55:54.801Z,84.43
2019-02-04T02:58:21.901Z,84.92
2019-02-04T03:00:49.404Z,85.10
2019-02-04T03:03:16.756Z,84.62
2019-02-04T03:05:43.874Z,84.95
2019-02-04T03:08:11.793Z,85.44
2019-02-04T03:10:38.867Z,85.94
2019-02-04T03:13:06.374Z,85.50
2019-02-04T03:15:33.435Z,85.28
2019-02-04T03:18:00.780Z,85.75
2019-02-04T03:20:28.286Z,85.59
2019-02-04T03:22:55.336Z,85.15
2019-02-04T03:25:23.356Z,85.66
2019-02-04T03:27:50.811Z,85.53
2019-02-04T03:30:23.221Z,85.84
2019-02-04T03:32:50.550Z,85.42
2019-02-04T03:35:17.614Z,84.77
2019-02-04T03:37:45.786Z,84.60
2019-02-04T03:40:14.831Z,84.57
2019-02-04T03:42:42.617Z,83.23
2019-02-04T03:45:10.814Z,83.08
2019-02-04T03:47:38.246Z,83.19
2019-02-04T03:50:06.900Z,81.93
2019-02-04T03:52:33.930Z,81.44
2019-02-04T03:55:01.233Z,82.22
2019-02-04T03:57:28.581Z,80.98
2019-02-04T03:59:57.105Z,80.57
2019-02-04T04:02:24.320Z,80.62
2019-02-04T04:04:51.670Z,81.09
2019-02-04T04:07:19.022Z,81.59
2019-02-04T04:09:46.082Z,80.95
2019-02-04T04:12:13.734Z,79.91
2019-02-04T04:14:41.140Z,79.42
2019-02-04T04:17:08.445Z,81.32
2019-02-04T04:19:36.514Z,80.95
2019-02-04T04:22:03.868Z,80.49
2019-02-04T04:24:31.223Z,79.62
2019-02-04T04:26:58.285Z,80.47
2019-02-04T04:29:25.635Z,79.13
2019-02-04T04:31:52.683Z,79.09
2019-02-04T04:34:19.758Z,80.23
2019-02-04T04:36:46.794Z,80.06
2019-02-04T04:39:13.838Z,80.40
2019-02-04T04:41:40.939Z,79.93
2019-02-04T04:44:07.985Z,79.03
2019-02-04T04:46:35.023Z,78.90
2019-02-04T04:49:02.098Z,78.67
2019-02-04T04:51:29.152Z,79.10
2019-02-04T04:53:56.207Z,79.37
2019-02-04T04:56:23.384Z,79.95
2019-02-04T04:58:50.427Z,80.62
2019-02-04T05:01:17.783Z,80.24
2019-02-04T05:03:45.036Z,80.22
2019-02-04T05:06:12.082Z,80.84
2019-02-04T05:08:39.135Z,79.67
2019-02-04T05:11:06.866Z,79.47
2019-02-04T05:13:34.323Z,78.82
2019-02-04T05:16:01.681Z,79.50
2019-02-04T05:18:37.816Z,79.39
2019-02-04T05:20:58.942Z,79.68
2019-02-04T05:23:26.296Z,79.85
2019-02-04T05:25:53.649Z,79.77
2019-02-04T05:28:21.310Z,79.89
2019-02-04T05:30:48.667Z,80.30
2019-02-04T05:33:16.020Z,79.27
2019-02-04T05:35:43.376Z,79.35
2019-02-04T05:38:11.449Z,79.53
2019-02-04T05:40:39.150Z,79.36
2019-02-04T05:43:07.125Z,79.16
2019-02-04T05:45:34.537Z,78.75
2019-02-04T05:48:02.710Z,78.20
2019-02-04T05:50:30.061Z,78.59
2019-02-04T05:52:57.827Z,79.49
2019-02-04T05:55:25.487Z,79.42
2019-02-04T05:57:52.848Z,79.33
2019-02-04T06:00:31.846Z,78.82
2019-02-04T06:02:59.627Z,79.59
2019-02-04T06:05:26.998Z,78.81
2019-02-04T06:07:54.344Z,78.87
2019-02-04T06:10:22.108Z,79.47
2019-02-04T06:12:49.458Z,79.23
2019-02-04T06:15:17.058Z,79.77
2019-02-04T06:17:44.134Z,79.28
2019-02-04T06:20:13.650Z,79.65
2019-02-04T06:22:40.723Z,79.02
2019-02-04T06:25:08.073Z,79.78
2019-02-04T06:27:35.105Z,79.68
2019-02-04T06:30:02.223Z,79.79
2019-02-04T06:32:29.743Z,78.96
2019-02-04T06:34:57.107Z,79.65
2019-02-04T06:37:24.436Z,79.68
2019-02-04T06:39:51.993Z,79.18
2019-02-04T06:42:19.965Z,79.93
2019-02-04T06:44:47.020Z,79.77
2019-02-04T06:47:14.061Z,79.53
2019-02-04T06:49:41.726Z,79.60
2019-02-04T06:52:09.074Z,79.20
2019-02-04T06:54:36.445Z,79.02
2019-02-04T06:57:03.785Z,78.86
2019-02-04T06:59:31.142Z,78.30
2019-02-04T07:01:58.505Z,78.40
2019-02-04T07:04:26.153Z,78.03
2019-02-04T07:06:54.022Z,78.02
2019-02-04T07:09:21.681Z,77.95
2019-02-04T07:11:49.757Z,77.28
2019-02-04T07:14:17.517Z,78.71
2019-02-04T07:16:45.184Z,77.97
2019-02-04T07:19:23.341Z,78.27
2019-02-04T07:21:41.939Z,78.56
2019-02-04T07:24:09.290Z,78.19
2019-02-04T07:26:36.977Z,77.90
2019-02-04T07:29:04.028Z,77.52
2019-02-04T07:31:31.663Z,77.48
2019-02-04T07:34:00.451Z,76.49
2019-02-04T07:36:28.315Z,75.67
2019-02-04T07:38:55.672Z,75.78
2019-02-04T07:41:23.124Z,75.42
2019-02-04T07:43:51.071Z,75.71
2019-02-04T07:46:18.450Z,74.75
2019-02-04T07:48:46.114Z,74.05
2019-02-04T07:51:15.824Z,73.80
2019-02-04T07:53:43.589Z,73.08
2019-02-04T07:56:10.625Z,73.33
2019-02-04T07:58:37.985Z,72.92
2019-02-04T08:01:05.447Z,73.25
2019-02-04T08:03:32.798Z,72.65
2019-02-04T08:06:00.463Z,72.97
2019-02-04T08:08:28.126Z,73.02
2019-02-04T08:10:56.090Z,72.91
2019-02-04T08:13:23.475Z,73.11
2019-02-04T08:15:50.799Z,72.50
2019-02-04T08:18:18.666Z,73.43
2019-02-04T08:20:46.020Z,72.47
2019-02-04T08:23:13.678Z,72.89
2019-02-04T08:25:41.857Z,71.85
2019-02-04T08:28:08.931Z,71.40
2019-02-04T08:30:38.356Z,70.02
2019-02-04T08:33:05.246Z,69.71
2019-02-04T08:35:32.323Z,69.75
2019-02-04T08:37:59.700Z,68.73
2019-02-04T08:40:26.748Z,70.02
2019-02-04T08:42:54.219Z,70.87
2019-02-04T08:45:21.276Z,71.55
2019-02-04T08:47:48.315Z,71.41
2019-02-04T08:50:17.086Z,71.08
2019-02-04T08:52:44.327Z,71.41
2019-02-04T08:55:11.590Z,71.54
2019-02-04T08:57:38.998Z,71.02
2019-02-04T09:00:07.865Z,71.07
2019-02-04T09:02:37.214Z,71.61
2019-02-04T09:05:05.067Z,71.39
2019-02-04T09:07:33.198Z,71.83
2019-02-04T09:10:00.327Z,71.73
2019-02-04T09:12:27.452Z,72.08
2019-02-04T09:14:54.498Z,71.38
2019-02-04T09:17:22.338Z,72.03
2019-02-04T09:19:50.411Z,72.26
2019-02-04T09:22:17.808Z,72.10
2019-02-04T09:24:45.264Z,72.12
2019-02-04T09:27:12.352Z,72.29
2019-02-04T09:29:39.403Z,71.90
2019-02-04T09:32:06.776Z,71.14
2019-02-04T09:34:33.849Z,70.52
2019-02-04T09:37:01.589Z,70.08
2019-02-04T09:39:29.135Z,70.10
2019-02-04T09:41:56.200Z,69.71
2019-02-04T09:44:23.851Z,70.15
2019-02-04T09:46:51.209Z,70.51
2019-02-04T09:49:19.276Z,70.42
2019-02-04T09:51:47.048Z,69.52
2019-02-04T09:54:14.499Z,70.36
2019-02-04T09:56:42.191Z,70.60
2019-02-04T09:59:09.633Z,70.47
2019-02-04T10:01:37.798Z,70.38
2019-02-04T10:04:04.886Z,69.92
2019-02-04T10:06:34.139Z,70.47
2019-02-04T10:09:02.106Z,70.83
2019-02-04T10:11:33.454Z,70.74
2019-02-04T10:14:01.219Z,70.00
2019-02-04T10:16:28.571Z,70.57
2019-02-04T10:18:56.181Z,70.91
2019-02-04T10:21:23.598Z,71.29
2019-02-04T10:23:50.946Z,70.94
2019-02-04T10:26:19.422Z,70.60
2019-02-04T10:28:47.189Z,70.18
2019-02-04T10:31:15.828Z,70.23
2019-02-04T10:33:43.888Z,70.04
2019-02-04T10:36:11.193Z,69.93
2019-02-04T10:38:38.694Z,69.50
2019-02-04T10:41:05.952Z,69.30
2019-02-04T10:43:34.791Z,68.94
2019-02-04T10:46:04.727Z,69.55
2019-02-04T10:48:32.853Z,68.27
2019-02-04T10:51:00.230Z,68.46
2019-02-04T10:53:28.553Z,68.18
2019-02-04T10:55:55.961Z,67.94
2019-02-04T10:58:23.019Z,67.25
2019-02-04T11:00:50.521Z,68.12
2019-02-04T11:03:19.928Z,67.39
2019-02-04T11:05:46.878Z,67.45
2019-02-04T11:08:14.138Z,66.25
2019-02-04T11:10:41.586Z,65.43
2019-02-04T11:13:11.461Z,66.28
2019-02-04T11:15:39.215Z,65.82
2019-02-04T11:18:06.443Z,65.50
2019-02-04T11:20:33.801Z,64.49
2019-02-04T11:23:01.226Z,64.92
2019-02-04T11:25:28.597Z,64.69
2019-02-04T11:27:56.011Z,63.05
2019-02-04T11:30:26.419Z,64.46
2019-02-04T11:32:54.056Z,63.38
2019-02-04T11:35:21.833Z,63.24
2019-02-04T11:37:49.714Z,63.03
2019-02-04T11:40:20.307Z,62.70
2019-02-04T11:42:47.698Z,62.23
2019-02-04T11:45:15.520Z,61.63
2019-02-04T11:47:43.850Z,60.99
2019-02-04T11:50:11.283Z,60.31
2019-02-04T11:52:38.467Z,59.22
2019-02-04T11:55:05.896Z,59.40
2019-02-04T11:57:33.380Z,57.88
2019-02-04T12:00:00.488Z,56.91
2019-02-04T12:02:34.443Z,56.22
2019-02-04T12:04:57.547Z,56.96
2019-02-04T12:07:24.645Z,56.11
2019-02-04T12:09:51.735Z,55.85
2019-02-04T12:12:18.800Z,56.01
2019-02-04T12:14:46.291Z,55.47
2019-02-04T12:17:13.343Z,55.06
2019-02-04T12:19:40.423Z,54.14
2019-02-04T12:22:08.167Z,54.43
2019-02-04T12:24:36.314Z,54.57
2019-02-04T12:27:04.466Z,54.20
2019-02-04T12:29:31.769Z,53.66
2019-02-04T12:31:59.483Z,53.31
2019-02-04T12:34:26.941Z,53.71
2019-02-04T12:36:54.394Z,53.03
2019-02-04T12:39:22.266Z,52.65
2019-02-04T12:41:50.740Z,51.76
2019-02-04T12:44:18.313Z,52.97
2019-02-04T12:46:45.676Z,53.43
2019-02-04T12:49:13.010Z,53.46
2019-02-04T12:51:40.068Z,52.81
2019-02-04T12:54:07.121Z,53.46
2019-02-04T12:56:34.476Z,53.43
2019-02-04T12:59:01.882Z,53.50
2019-02-04T13:01:29.271Z,53.69
2019-02-04T13:03:57.368Z,53.49
2019-02-04T13:06:24.801Z,54.87
2019-02-04T13:08:51.855Z,54.45
2019-02-04T13:11:19.246Z,54.37
2019-02-04T13:13:47.017Z,54.40
2019-02-04T13:16:14.728Z,54.18
2019-02-04T13:18:42.083Z,53.59
2019-02-04T13:21:09.159Z,54.33
2019-02-04T13:23:36.225Z,54.77
2019-02-04T13:26:03.281Z,54.66
2019-02-04T13:28:30.358Z,53.73
2019-02-04T13:30:57.917Z,54.23
2019-02-04T13:33:24.992Z,54.44
2019-02-04T13:35:52.044Z,53.90
2019-02-04T13:38:19.351Z,54.70
2019-02-04T13:40:46.610Z,54.39
2019-02-04T13:43:15.703Z,54.54
2019-02-04T13:45:44.577Z,54.14
2019-02-04T13:48:12.117Z,53.89
2019-02-04T13:50:39.884Z,53.08
2019-02-04T13:53:07.159Z,53.06
2019-02-04T13:55:34.603Z,53.53
2019-02-04T13:58:01.821Z,52.70
2019-02-04T14:00:29.092Z,52.69
2019-02-04T14:02:59.685Z,53.49
2019-02-04T14:05:31.097Z,53.26
2019-02-04T14:07:57.487Z,53.62
2019-02-04T14:10:26.782Z,53.81
2019-02-04T14:12:54.630Z,54.12
2019-02-04T14:15:22.299Z,53.48
2019-02-04T14:17:50.158Z,53.90
2019-02-04T14:20:17.800Z,54.04
2019-02-04T14:22:44.841Z,53.97
2019-02-04T14:25:15.013Z,54.65
2019-02-04T14:27:43.330Z,55.02
2019-02-04T14:30:31.987Z,55.06
2019-02-04T14:32:59.373Z,54.95
2019-02-04T14:35:27.409Z,55.88
2019-02-04T14:37:54.622Z,56.04
2019-02-04T14:40:23.286Z,55.76
2019-02-04T14:42:59.754Z,55.64
2019-02-04T14:46:05.087Z,55.35
2019-02-04T14:48:59.331Z,54.69
2019-02-04T14:51:44.642Z,54.47
2019-02-04T14:54:41.662Z,55.16
2019-02-04T14:57:49.468Z,55.71
2019-02-04T15:00:39.936Z,55.45
2019-02-04T15:03:51.447Z,55.81
2019-02-04T15:07:17.779Z,55.60
2019-02-04T15:10:19.879Z,55.11
2019-02-04T15:14:00.610Z,55.51
2019-02-04T15:17:01.614Z,56.17
2019-02-04T15:19:59.620Z,54.82
2019-02-04T15:22:52.722Z,54.94
2019-02-04T15:25:58.123Z,55.00
2019-02-04T15:28:48.489Z,55.05
2019-02-04T15:31:57.725Z,55.28
2019-02-04T15:35:18.978Z,54.81
2019-02-04T15:38:26.010Z,54.94
2019-02-04T15:41:06.899Z,55.32
2019-02-04T15:43:55.963Z,55.00
2019-02-04T15:46:44.629Z,54.77
2019-02-04T15:50:07.647Z,55.24
2019-02-04T15:52:45.209Z,54.87
2019-02-04T15:55:07.969Z,54.99
2019-02-04T15:57:35.370Z,54.94
2019-02-04T16:00:02.826Z,54.82
2019-02-04T16:02:30.133Z,54.76
2019-02-04T16:04:57.198Z,55.59
2019-02-04T16:07:24.264Z,55.26
2019-02-04T16:09:51.296Z,56.17
2019-02-04T16:12:18.375Z,56.44
2019-02-04T16:14:45.449Z,58.63
2019-02-04T16:17:12.821Z,59.46
2019-02-04T16:19:39.914Z,58.95
2019-02-04T16:22:08.252Z,59.05
2019-02-04T16:24:35.251Z,58.77
2019-02-04T16:27:03.216Z,58.76
2019-02-04T16:29:31.106Z,58.15
2019-02-04T16:31:58.690Z,59.21
2019-02-04T16:34:25.801Z,57.41
2019-02-04T16:36:52.840Z,56.91
2019-02-04T16:39:19.925Z,56.69
2019-02-04T16:41:47.243Z,57.99
2019-02-04T16:44:14.289Z,58.72
2019-02-04T16:46:42.491Z,59.76
2019-02-04T16:49:09.962Z,59.75
2019-02-04T16:51:37.105Z,60.07
2019-02-04T16:54:05.342Z,60.27
2019-02-04T16:56:33.430Z,60.09
2019-02-04T16:59:00.487Z,60.24
2019-02-04T17:01:27.539Z,59.96
2019-02-04T17:03:54.989Z,59.74
2019-02-04T17:06:22.933Z,59.74
2019-02-04T17:08:51.121Z,59.05
2019-02-04T17:11:18.457Z,58.52
2019-02-04T17:13:46.124Z,58.83
2019-02-04T17:16:13.480Z,59.60
2019-02-04T17:18:40.681Z,59.34
2019-02-04T17:21:08.803Z,59.42
2019-02-04T17:23:35.956Z,61.61
2019-02-04T17:26:03.351Z,62.92
2019-02-04T17:28:30.416Z,63.77
2019-02-04T17:30:57.484Z,66.63
2019-02-04T17:33:24.957Z,68.91
2019-02-04T17:35:53.240Z,70.71
2019-02-04T17:38:20.999Z,72.93
2019-02-04T17:40:48.351Z,73.66
2019-02-04T17:43:15.735Z,75.31
2019-02-04T17:45:42.799Z,76.39
2019-02-04T17:48:11.487Z,77.55
2019-02-04T17:50:39.686Z,77.95
2019-02-04T17:53:06.759Z,78.44
2019-02-04T17:55:35.287Z,78.93
2019-02-04T17:58:02.443Z,79.71
2019-02-04T18:00:35.539Z,79.06
2019-02-04T18:03:03.089Z,80.45
2019-02-04T18:05:31.246Z,80.47
2019-02-04T18:07:58.773Z,80.04
2019-02-04T18:10:26.271Z,80.68
2019-02-04T18:12:53.330Z,80.81
2019-02-04T18:15:21.147Z,80.86
2019-02-04T18:17:49.312Z,80.36
2019-02-04T18:20:16.564Z,80.11
2019-02-04T18:22:46.202Z,80.10
2019-02-04T18:25:14.269Z,79.04
2019-02-04T18:27:41.447Z,79.84
2019-02-04T18:30:11.820Z,78.46
2019-02-04T18:32:38.862Z,78.73
2019-02-04T18:35:08.818Z,78.60
2019-02-04T18:37:35.850Z,78.26
2019-02-04T18:40:04.302Z,77.58
2019-02-04T18:42:31.669Z,77.52
2019-02-04T18:45:00.524Z,77.02
2019-02-04T18:47:27.975Z,75.98
2019-02-04T18:49:55.989Z,74.94
2019-02-04T18:52:23.794Z,75.03
2019-02-04T18:54:51.616Z,73.69
2019-02-04T18:57:18.879Z,74.41
2019-02-04T18:59:47.451Z,73.38
2019-02-04T19:02:15.011Z,72.63
2019-02-04T19:04:42.689Z,71.48
2019-02-04T19:07:11.587Z,71.66
2019-02-04T19:09:38.947Z,70.92
2019-02-04T19:12:06.265Z,70.68
2019-02-04T19:14:34.734Z,69.39
2019-02-04T19:17:02.779Z,69.82
2019-02-04T19:19:30.996Z,69.58
2019-02-04T19:21:58.041Z,69.59
2019-02-04T19:24:25.079Z,69.02
2019-02-04T19:26:54.047Z,68.66
2019-02-04T19:29:21.278Z,68.40
2019-02-04T19:31:48.513Z,68.64
2019-02-04T19:34:15.553Z,68.60
2019-02-04T19:36:43.701Z,68.23
2019-02-04T19:39:10.817Z,68.29
2019-02-04T19:41:37.981Z,68.57
2019-02-04T19:44:05.032Z,68.11
2019-02-04T19:46:32.232Z,67.57
2019-02-04T19:48:59.581Z,68.40
2019-02-04T19:51:26.642Z,68.79
2019-02-04T19:53:54.571Z,68.67
2019-02-04T19:56:21.934Z,69.01
2019-02-04T19:58:49.000Z,68.83
2019-02-04T20:01:16.925Z,69.06
2019-02-04T20:03:44.002Z,70.07
2019-02-04T20:06:11.642Z,71.43
2019-02-04T20:08:39.454Z,71.57
2019-02-04T20:11:06.966Z,71.72
2019-02-04T20:13:35.481Z,73.18
2019-02-04T20:16:02.731Z,73.52
2019-02-04T20:18:29.818Z,73.54
2019-02-04T20:20:57.141Z,74.64
2019-02-04T20:23:24.186Z,74.93
2019-02-04T20:25:52.022Z,76.02
2019-02-04T20:28:20.176Z,77.02
2019-02-04T20:30:48.150Z,77.32
2019-02-04T20:33:16.847Z,77.31
2019-02-04T20:35:44.466Z,77.76
2019-02-04T20:38:11.618Z,77.81
2019-02-04T20:40:39.443Z,77.69
2019-02-04T20:43:08.099Z,78.00
2019-02-04T20:45:36.647Z,78.78
2019-02-04T20:48:06.220Z,79.29
2019-02-04T20:50:35.589Z,80.54
2019-02-04T20:53:03.295Z,81.32
2019-02-04T20:55:30.849Z,81.75
2019-02-04T20:57:59.389Z,82.15
2019-02-04T21:00:28.292Z,82.02
2019-02-04T21:02:56.061Z,82.18
2019-02-04T21:05:23.137Z,82.55
2019-02-04T21:07:50.467Z,82.54
2019-02-04T21:10:19.349Z,83.13
2019-02-04T21:12:46.420Z,82.94
2019-02-04T21:15:16.511Z,84.02
2019-02-04T21:17:43.697Z,83.38
2019-02-04T21:20:14.787Z,83.48
2019-02-04T21:22:43.417Z,84.14
2019-02-04T21:25:10.583Z,84.63
2019-02-04T21:27:38.836Z,85.15
2019-02-04T21:30:11.080Z,85.31
2019-02-04T21:32:38.267Z,85.46
2019-02-04T21:35:05.683Z,85.74
2019-02-04T21:37:33.503Z,86.32
2019-02-04T21:40:00.554Z,86.35
2019-02-04T21:42:27.663Z,86.21
2019-02-04T21:44:55.012Z,86.46
2019-02-04T21:47:22.646Z,86.79
2019-02-04T21:49:50.153Z,86.58
2019-02-04T21:52:18.303Z,87.35
2019-02-04T21:54:45.985Z,86.94
2019-02-04T21:57:13.369Z,87.35
2019-02-04T21:59:41.492Z,87.53
2019-02-04T22:02:08.561Z,87.20
2019-02-04T22:04:36.321Z,87.18
2019-02-04T22:07:03.659Z,87.17
2019-02-04T22:09:31.732Z,87.17
2019-02-04T22:11:59.388Z,87.60
2019-02-04T22:14:26.798Z,88.06
2019-02-04T22:16:53.953Z,87.00
2019-02-04T22:19:21.002Z,86.84
2019-02-04T22:21:49.469Z,86.65
2019-02-04T22:24:17.122Z,86.61
2019-02-04T22:26:44.539Z,86.04
2019-02-04T22:29:12.302Z,85.80
2019-02-04T22:31:39.657Z,86.28
2019-02-04T22:34:07.044Z,86.11
2019-02-04T22:36:34.065Z,85.89
2019-02-04T22:39:01.722Z,86.08
2019-02-04T22:41:31.531Z,85.69
2019-02-04T22:43:58.578Z,85.87
2019-02-04T22:46:26.548Z,85.93
2019-02-04T22:48:54.311Z,86.17
2019-02-04T22:51:21.662Z,86.32
2019-02-04T22:53:48.705Z,85.98
2019-02-04T22:56:15.766Z,86.07
2019-02-04T22:58:43.319Z,85.81
2019-02-04T23:01:41.291Z,85.04
2019-02-04T23:04:09.258Z,85.25
2019-02-04T23:06:36.316Z,85.26
2019-02-04T23:09:07.644Z,85.46
2019-02-04T23:11:35.727Z,85.63
2019-02-04T23:14:03.616Z,85.12
2019-02-04T23:16:31.375Z,84.70
2019-02-04T23:19:01.382Z,84.37
2019-02-04T23:21:28.728Z,85.49
2019-02-04T23:23:56.597Z,85.26
2019-02-04T23:26:24.073Z,85.32
2019-02-04T23:28:52.221Z,85.72
2019-02-04T23:31:20.089Z,85.44
2019-02-04T23:33:47.126Z,85.29
2019-02-04T23:36:14.502Z,85.40
2019-02-04T23:38:41.603Z,86.18
2019-02-04T23:41:08.922Z,85.80
2019-02-04T23:43:36.677Z,85.75
2019-02-04T23:46:05.447Z,85.38
2019-02-04T23:48:32.909Z,85.68
2019-02-04T23:50:59.987Z,86.09
2019-02-04T23:53:27.513Z,86.12
2019-02-04T23:55:55.043Z,85.39
2019-02-04T23:58:23.231Z,84.95
